sensor_id;sensor_type;location;lat;lon;timestamp;pressure;altitude;pressure_sealevel;temperature;humidity
69780;BME280;57052;55.602;38.096;2024-03-02T00:00:37;101669.22;;;4.73;64.53
69780;BME280;57052;55.602;38.096;2024-03-02T00:03:03;101671.91;;;4.73;64.10
69780;BME280;57052;55.602;38.096;2024-03-02T00:05:28;101669.22;;;4.73;64.25
69780;BME280;57052;55.602;38.096;2024-03-02T00:07:55;101677.28;;;4.73;64.24
69780;BME280;57052;55.602;38.096;2024-03-02T00:10:26;101673.53;;;4.74;64.66
69780;BME280;57052;55.602;38.096;2024-03-02T00:12:57;101672.91;;;4.72;64.03
69780;BME280;57052;55.602;38.096;2024-03-02T00:15:48;101670.63;;;4.69;64.98
69780;BME280;57052;55.602;38.096;2024-03-02T00:18:38;101658.97;;;4.56;64.68
69780;BME280;57052;55.602;38.096;2024-03-02T00:21:06;101672.28;;;4.70;64.50
69780;BME280;57052;55.602;38.096;2024-03-02T00:23:35;101669.41;;;4.72;64.39
69780;BME280;57052;55.602;38.096;2024-03-02T00:26:01;101673.75;;;4.73;64.12
69780;BME280;57052;55.602;38.096;2024-03-02T00:28:29;101670.84;;;4.74;64.41
69780;BME280;57052;55.602;38.096;2024-03-02T00:31:09;101669.59;;;4.70;65.04
69780;BME280;57052;55.602;38.096;2024-03-02T00:33:47;101676.59;;;4.71;63.98
69780;BME280;57052;55.602;38.096;2024-03-02T00:36:24;101667.56;;;4.72;63.79
69780;BME280;57052;55.602;38.096;2024-03-02T00:38:53;101672.06;;;4.72;63.94
69780;BME280;57052;55.602;38.096;2024-03-02T00:41:24;101672.28;;;4.70;63.88
69780;BME280;57052;55.602;38.096;2024-03-02T00:46:23;101664.91;;;4.51;64.96
69780;BME280;57052;55.602;38.096;2024-03-02T00:48:56;101664.78;;;4.59;64.89
69780;BME280;57052;55.602;38.096;2024-03-02T00:51:23;101665.41;;;4.61;64.08
69780;BME280;57052;55.602;38.096;2024-03-02T00:53:51;101664.59;;;4.61;64.22
69780;BME280;57052;55.602;38.096;2024-03-02T00:56:18;101672.44;;;4.62;64.51
69780;BME280;57052;55.602;38.096;2024-03-02T00:58:44;101667.91;;;4.63;64.40
69780;BME280;57052;55.602;38.096;2024-03-02T01:01:09;101672.44;;;4.62;64.23
69780;BME280;57052;55.602;38.096;2024-03-02T01:03:35;101654.25;;;4.58;64.62
69780;BME280;57052;55.602;38.096;2024-03-02T01:06:03;101668.06;;;4.61;64.17
69780;BME280;57052;55.602;38.096;2024-03-02T01:08:29;101675.31;;;4.61;64.88
69780;BME280;57052;55.602;38.096;2024-03-02T01:10:54;101678.19;;;4.59;64.39
69780;BME280;57052;55.602;38.096;2024-03-02T01:13:22;101676.34;;;4.60;64.83
69780;BME280;57052;55.602;38.096;2024-03-02T01:15:48;101676.34;;;4.60;64.73
69780;BME280;57052;55.602;38.096;2024-03-02T01:18:14;101678.19;;;4.59;64.51
69780;BME280;57052;55.602;38.096;2024-03-02T01:20:40;101679.22;;;4.58;64.61
69780;BME280;57052;55.602;38.096;2024-03-02T01:23:06;101677.34;;;4.59;64.21
69780;BME280;57052;55.602;38.096;2024-03-02T01:25:31;101674.03;;;4.57;64.17
69780;BME280;57052;55.602;38.096;2024-03-02T01:27:57;101678.56;;;4.56;64.14
69780;BME280;57052;55.602;38.096;2024-03-02T01:30:23;101679.59;;;4.55;64.30
69780;BME280;57052;55.602;38.096;2024-03-02T01:32:49;101682.91;;;4.57;64.49
69780;BME280;57052;55.602;38.096;2024-03-02T01:35:14;101685.59;;;4.57;64.11
69780;BME280;57052;55.602;38.096;2024-03-02T01:37:41;101672.94;;;4.51;64.37
69780;BME280;57052;55.602;38.096;2024-03-02T01:40:07;101682.28;;;4.55;64.22
69780;BME280;57052;55.602;38.096;2024-03-02T01:42:40;101684.34;;;4.53;64.20
69780;BME280;57052;55.602;38.096;2024-03-02T01:45:07;101685.13;;;4.53;64.21
69780;BME280;57052;55.602;38.096;2024-03-02T01:47:33;101686.19;;;4.52;64.11
69780;BME280;57052;55.602;38.096;2024-03-02T01:49:59;101693.38;;;4.52;63.87
69780;BME280;57052;55.602;38.096;2024-03-02T01:52:26;101695.06;;;4.53;64.03
69780;BME280;57052;55.602;38.096;2024-03-02T01:54:52;101700.44;;;4.53;63.83
69780;BME280;57052;55.602;38.096;2024-03-02T01:57:18;101700.44;;;4.53;64.29
69780;BME280;57052;55.602;38.096;2024-03-02T01:59:45;101708.25;;;4.54;64.17
69780;BME280;57052;55.602;38.096;2024-03-02T02:02:14;101690.66;;;4.45;64.06
69780;BME280;57052;55.602;38.096;2024-03-02T02:04:40;101711.16;;;4.53;64.16
69780;BME280;57052;55.602;38.096;2024-03-02T02:07:05;101714.84;;;4.52;63.61
69780;BME280;57052;55.602;38.096;2024-03-02T02:09:32;101698.72;;;4.45;64.08
69780;BME280;57052;55.602;38.096;2024-03-02T02:11:58;101711.53;;;4.50;63.60
69780;BME280;57052;55.602;38.096;2024-03-02T02:14:25;101708.84;;;4.50;63.57
69780;BME280;57052;55.602;38.096;2024-03-02T02:16:51;101697.66;;;4.46;63.56
69780;BME280;57052;55.602;38.096;2024-03-02T02:19:18;101702.84;;;4.48;63.86
69780;BME280;57052;55.602;38.096;2024-03-02T02:21:43;101709.84;;;4.49;63.79
69780;BME280;57052;55.602;38.096;2024-03-02T02:24:09;101712.53;;;4.49;63.92
69780;BME280;57052;55.602;38.096;2024-03-02T02:26:35;101688.28;;;4.36;64.52
69780;BME280;57052;55.602;38.096;2024-03-02T02:29:01;101717.47;;;4.45;64.53
69780;BME280;57052;55.602;38.096;2024-03-02T02:31:39;101697.38;;;4.35;64.46
69780;BME280;57052;55.602;38.096;2024-03-02T02:34:05;101712.28;;;4.44;64.30
69780;BME280;57052;55.602;38.096;2024-03-02T02:36:32;101714.78;;;4.45;63.87
69780;BME280;57052;55.602;38.096;2024-03-02T02:39:02;101710.66;;;4.43;64.28
69780;BME280;57052;55.602;38.096;2024-03-02T02:41:32;101712.91;;;4.46;63.70
69780;BME280;57052;55.602;38.096;2024-03-02T02:43:58;101709.44;;;4.45;64.20
69780;BME280;57052;55.602;38.096;2024-03-02T02:46:24;101707.56;;;4.46;64.03
69780;BME280;57052;55.602;38.096;2024-03-02T02:48:49;101710.44;;;4.44;63.65
69780;BME280;57052;55.602;38.096;2024-03-02T02:51:17;101705.91;;;4.45;63.89
69780;BME280;57052;55.602;38.096;2024-03-02T02:53:43;101689.38;;;4.41;64.20
69780;BME280;57052;55.602;38.096;2024-03-02T02:56:09;101697.88;;;4.45;63.61
69780;BME280;57052;55.602;38.096;2024-03-02T02:58:35;101679.44;;;4.35;63.64
69780;BME280;57052;55.602;38.096;2024-03-02T03:01:01;101692.25;;;4.40;64.29
69780;BME280;57052;55.602;38.096;2024-03-02T03:03:27;101697.88;;;4.45;64.27
69780;BME280;57052;55.602;38.096;2024-03-02T03:05:52;101693.53;;;4.44;63.84
69780;BME280;57052;55.602;38.096;2024-03-02T03:08:18;101678.63;;;4.35;63.99
69780;BME280;57052;55.602;38.096;2024-03-02T03:10:44;101690.59;;;4.39;63.91
69780;BME280;57052;55.602;38.096;2024-03-02T03:13:10;101698.72;;;4.45;63.98
69780;BME280;57052;55.602;38.096;2024-03-02T03:15:36;101690.59;;;4.39;63.98
69780;BME280;57052;55.602;38.096;2024-03-02T03:18:03;101697.25;;;4.43;64.53
69780;BME280;57052;55.602;38.096;2024-03-02T03:20:29;101699.72;;;4.44;64.27
69780;BME280;57052;55.602;38.096;2024-03-02T03:22:58;101703.41;;;4.43;64.50
69780;BME280;57052;55.602;38.096;2024-03-02T03:25:24;101694.56;;;4.43;64.47
69780;BME280;57052;55.602;38.096;2024-03-02T03:27:50;101686.19;;;4.31;63.99
69780;BME280;57052;55.602;38.096;2024-03-02T03:30:18;101704.44;;;4.42;64.51
69780;BME280;57052;55.602;38.096;2024-03-02T03:32:44;101706.28;;;4.42;64.77
69780;BME280;57052;55.602;38.096;2024-03-02T03:35:09;101702.59;;;4.43;64.17
69780;BME280;57052;55.602;38.096;2024-03-02T03:37:35;101704.44;;;4.42;64.41
69780;BME280;57052;55.602;38.096;2024-03-02T03:40:02;101706.09;;;4.43;64.16
69780;BME280;57052;55.602;38.096;2024-03-02T03:42:32;101700.09;;;4.41;64.56
69780;BME280;57052;55.602;38.096;2024-03-02T03:44:58;101699.09;;;4.42;64.50
69780;BME280;57052;55.602;38.096;2024-03-02T03:47:23;101675.22;;;4.26;64.74
69780;BME280;57052;55.602;38.096;2024-03-02T03:49:49;101701.94;;;4.41;64.25
69780;BME280;57052;55.602;38.096;2024-03-02T03:52:15;101697.63;;;4.40;64.53
69780;BME280;57052;55.602;38.096;2024-03-02T03:54:40;101700.47;;;4.38;64.61
69780;BME280;57052;55.602;38.096;2024-03-02T03:57:08;101702.34;;;4.38;64.70
69780;BME280;57052;55.602;38.096;2024-03-02T03:59:34;101686.78;;;4.27;65.02
69780;BME280;57052;55.602;38.096;2024-03-02T04:02:00;101690.94;;;4.29;64.90
69780;BME280;57052;55.602;38.096;2024-03-02T04:04:25;101699.84;;;4.36;65.05
69780;BME280;57052;55.602;38.096;2024-03-02T04:06:51;101707.06;;;4.36;64.49
69780;BME280;57052;55.602;38.096;2024-03-02T04:09:16;101706.00;;;4.30;64.98
69780;BME280;57052;55.602;38.096;2024-03-02T04:11:42;101713.47;;;4.35;64.96
69780;BME280;57052;55.602;38.096;2024-03-02T04:14:08;101714.28;;;4.35;64.87
69780;BME280;57052;55.602;38.096;2024-03-02T04:16:34;101714.28;;;4.35;65.17
69780;BME280;57052;55.602;38.096;2024-03-02T04:19:00;101697.97;;;4.30;64.73
69780;BME280;57052;55.602;38.096;2024-03-02T04:21:25;101717.16;;;4.34;64.94
69780;BME280;57052;55.602;38.096;2024-03-02T04:23:51;101706.44;;;4.34;65.34
69780;BME280;57052;55.602;38.096;2024-03-02T04:26:17;101714.28;;;4.35;64.66
69780;BME280;57052;55.602;38.096;2024-03-02T04:28:47;101713.63;;;4.33;65.35
69780;BME280;57052;55.602;38.096;2024-03-02T04:31:15;101717.97;;;4.34;65.08
69780;BME280;57052;55.602;38.096;2024-03-02T04:33:40;101708.09;;;4.35;65.39
69780;BME280;57052;55.602;38.096;2024-03-02T04:36:06;101715.94;;;4.36;65.37
69780;BME280;57052;55.602;38.096;2024-03-02T04:38:35;101706.03;;;4.37;65.18
69780;BME280;57052;55.602;38.096;2024-03-02T04:41:00;101706.25;;;4.35;64.79
69780;BME280;57052;55.602;38.096;2024-03-02T04:43:26;101711.41;;;4.37;64.87
69780;BME280;57052;55.602;38.096;2024-03-02T04:45:52;101705.22;;;4.36;64.71
69780;BME280;57052;55.602;38.096;2024-03-02T04:48:18;101704.38;;;4.36;65.36
69780;BME280;57052;55.602;38.096;2024-03-02T04:50:44;101714.53;;;4.40;64.91
69780;BME280;57052;55.602;38.096;2024-03-02T04:53:10;101711.88;;;4.40;65.05
69780;BME280;57052;55.602;38.096;2024-03-02T04:55:36;101713.50;;;4.41;65.27
69780;BME280;57052;55.602;38.096;2024-03-02T04:58:05;101712.03;;;4.39;65.17
69780;BME280;57052;55.602;38.096;2024-03-02T05:00:32;101709.81;;;4.42;64.69
69780;BME280;57052;55.602;38.096;2024-03-02T05:02:57;101712.88;;;4.39;65.16
69780;BME280;57052;55.602;38.096;2024-03-02T05:05:23;101713.72;;;4.40;64.66
69780;BME280;57052;55.602;38.096;2024-03-02T05:07:49;101698.59;;;4.32;65.33
69780;BME280;57052;55.602;38.096;2024-03-02T05:10:15;101718.50;;;4.44;64.91
69780;BME280;57052;55.602;38.096;2024-03-02T05:12:41;101704.38;;;4.36;65.13
69780;BME280;57052;55.602;38.096;2024-03-02T05:15:11;101728.19;;;4.45;65.11
69780;BME280;57052;55.602;38.096;2024-03-02T05:17:37;101717.28;;;4.47;65.17
69780;BME280;57052;55.602;38.096;2024-03-02T05:20:07;101719.75;;;4.48;65.19
69780;BME280;57052;55.602;38.096;2024-03-02T05:22:34;101723.91;;;4.51;65.30
69780;BME280;57052;55.602;38.096;2024-03-02T05:25:03;101721.88;;;4.53;64.91
69780;BME280;57052;55.602;38.096;2024-03-02T05:27:31;101729.72;;;4.54;65.20
69780;BME280;57052;55.602;38.096;2024-03-02T05:29:59;101695.38;;;4.43;65.14
69780;BME280;57052;55.602;38.096;2024-03-02T05:32:25;101710.75;;;4.56;64.80
69780;BME280;57052;55.602;38.096;2024-03-02T05:34:51;101719.22;;;4.60;64.78
69780;BME280;57052;55.602;38.096;2024-03-02T05:37:17;101714.88;;;4.59;64.86
69780;BME280;57052;55.602;38.096;2024-03-02T05:39:43;101688.66;;;4.54;64.80
69780;BME280;57052;55.602;38.096;2024-03-02T05:42:09;101691.34;;;4.54;64.48
69780;BME280;57052;55.602;38.096;2024-03-02T05:44:38;101708.16;;;4.69;64.77
69780;BME280;57052;55.602;38.096;2024-03-02T05:47:04;101715.81;;;4.72;64.19
69780;BME280;57052;55.602;38.096;2024-03-02T05:49:30;101705.09;;;4.72;64.24
69780;BME280;57052;55.602;38.096;2024-03-02T05:51:56;101706.34;;;4.76;64.27
69780;BME280;57052;55.602;38.096;2024-03-02T05:54:22;101686.47;;;4.64;64.36
69780;BME280;57052;55.602;38.096;2024-03-02T05:56:48;101714.66;;;4.81;64.18
69780;BME280;57052;55.602;38.096;2024-03-02T05:59:14;101721.47;;;4.84;64.50
69780;BME280;57052;55.602;38.096;2024-03-02T06:01:42;101691.06;;;4.70;63.89
69780;BME280;57052;55.602;38.096;2024-03-02T06:04:09;101729.59;;;4.90;64.53
69780;BME280;57052;55.602;38.096;2024-03-02T06:06:37;101721.53;;;4.90;64.02
69780;BME280;57052;55.602;38.096;2024-03-02T06:09:04;101726.09;;;4.96;63.95
69780;BME280;57052;55.602;38.096;2024-03-02T06:11:40;101726.34;;;5.01;64.10
69780;BME280;57052;55.602;38.096;2024-03-02T06:14:07;101734.00;;;5.04;64.34
69780;BME280;57052;55.602;38.096;2024-03-02T06:16:34;101729.25;;;5.00;63.95
69780;BME280;57052;55.602;38.096;2024-03-02T06:19:00;101735.91;;;5.10;63.55
69780;BME280;57052;55.602;38.096;2024-03-02T06:21:27;101738.22;;;5.13;63.46
69780;BME280;57052;55.602;38.096;2024-03-02T06:23:53;101740.47;;;5.16;63.41
69780;BME280;57052;55.602;38.096;2024-03-02T06:26:19;101742.16;;;5.17;63.53
69780;BME280;57052;55.602;38.096;2024-03-02T06:28:46;101716.50;;;5.08;63.51
69780;BME280;57052;55.602;38.096;2024-03-02T06:31:12;101719.44;;;5.13;63.08
69780;BME280;57052;55.602;38.096;2024-03-02T06:33:38;101724.59;;;5.15;63.35
69780;BME280;57052;55.602;38.096;2024-03-02T06:36:04;101711.56;;;5.12;62.98
69780;BME280;57052;55.602;38.096;2024-03-02T06:38:30;101722.56;;;5.24;62.70
69780;BME280;57052;55.602;38.096;2024-03-02T06:40:59;101731.28;;;5.32;62.69
69780;BME280;57052;55.602;38.096;2024-03-02T06:43:25;101708.94;;;5.25;62.87
69780;BME280;57052;55.602;38.096;2024-03-02T06:45:51;101732.16;;;5.39;62.53
69780;BME280;57052;55.602;38.096;2024-03-02T06:48:17;101727.84;;;5.45;62.52
69780;BME280;57052;55.602;38.096;2024-03-02T06:50:46;101733.44;;;5.50;62.40
69780;BME280;57052;55.602;38.096;2024-03-02T06:53:13;101725.81;;;5.53;62.18
69780;BME280;57052;55.602;38.096;2024-03-02T06:55:39;101729.53;;;5.59;62.32
69780;BME280;57052;55.602;38.096;2024-03-02T06:58:05;101730.81;;;5.63;62.08
69780;BME280;57052;55.602;38.096;2024-03-02T07:00:32;101721.72;;;5.64;61.82
69780;BME280;57052;55.602;38.096;2024-03-02T07:02:59;101728.78;;;5.71;61.92
69780;BME280;57052;55.602;38.096;2024-03-02T07:05:24;101731.50;;;5.78;61.47
69780;BME280;57052;55.602;38.096;2024-03-02T07:07:50;101734.59;;;5.81;61.73
69780;BME280;57052;55.602;38.096;2024-03-02T07:10:16;101732.16;;;5.87;61.61
69780;BME280;57052;55.602;38.096;2024-03-02T07:12:44;101732.19;;;5.93;61.27
69780;BME280;57052;55.602;38.096;2024-03-02T07:15:10;101731.59;;;5.98;60.89
69780;BME280;57052;55.602;38.096;2024-03-02T07:17:56;101723.97;;;6.01;61.22
69780;BME280;57052;55.602;38.096;2024-03-02T07:20:22;101686.28;;;5.88;60.79
69780;BME280;57052;55.602;38.096;2024-03-02T07:22:48;101727.91;;;6.18;60.92
69780;BME280;57052;55.602;38.096;2024-03-02T07:25:14;101734.97;;;6.26;60.27
69780;BME280;57052;55.602;38.096;2024-03-02T07:27:40;101732.50;;;6.31;60.63
69780;BME280;57052;55.602;38.096;2024-03-02T07:30:07;101717.59;;;6.28;60.50
69780;BME280;57052;55.602;38.096;2024-03-02T07:32:33;101741.38;;;6.44;59.99
69780;BME280;57052;55.602;38.096;2024-03-02T07:34:58;101721.13;;;6.49;59.78
69780;BME280;57052;55.602;38.096;2024-03-02T07:37:27;101721.13;;;6.55;59.12
69780;BME280;57052;55.602;38.096;2024-03-02T07:39:53;101718.84;;;6.65;59.43
69780;BME280;57052;55.602;38.096;2024-03-02T07:42:19;101725.88;;;6.73;59.32
69780;BME280;57052;55.602;38.096;2024-03-02T07:44:45;101719.69;;;6.79;59.16
69780;BME280;57052;55.602;38.096;2024-03-02T07:47:13;101714.50;;;6.84;59.40
69780;BME280;57052;55.602;38.096;2024-03-02T07:49:44;101721.94;;;6.88;58.75
69780;BME280;57052;55.602;38.096;2024-03-02T07:52:10;101713.25;;;6.93;58.68
69780;BME280;57052;55.602;38.096;2024-03-02T07:54:36;101726.06;;;6.97;58.46
69780;BME280;57052;55.602;38.096;2024-03-02T07:57:02;101720.03;;;7.02;58.59
69780;BME280;57052;55.602;38.096;2024-03-02T07:59:28;101725.44;;;7.02;58.71
69780;BME280;57052;55.602;38.096;2024-03-02T08:01:53;101712.19;;;7.00;58.31
69780;BME280;57052;55.602;38.096;2024-03-02T08:04:20;101716.75;;;7.00;58.52
69780;BME280;57052;55.602;38.096;2024-03-02T08:06:46;101718.19;;;7.02;58.28
69780;BME280;57052;55.602;38.096;2024-03-02T08:09:12;101717.56;;;7.07;58.47
69780;BME280;57052;55.602;38.096;2024-03-02T08:11:38;101720.84;;;7.09;58.14
69780;BME280;57052;55.602;38.096;2024-03-02T08:14:04;101722.72;;;7.15;57.91
69780;BME280;57052;55.602;38.096;2024-03-02T08:16:30;101712.56;;;7.17;57.77
69780;BME280;57052;55.602;38.096;2024-03-02T08:18:56;101710.91;;;7.16;57.54
69780;BME280;57052;55.602;38.096;2024-03-02T08:21:25;101715.66;;;7.21;57.45
69780;BME280;57052;55.602;38.096;2024-03-02T08:23:51;101712.75;;;7.22;57.52
69780;BME280;57052;55.602;38.096;2024-03-02T08:26:17;101709.03;;;7.23;57.52
69780;BME280;57052;55.602;38.096;2024-03-02T08:28:42;101718.94;;;7.29;56.89
69780;BME280;57052;55.602;38.096;2024-03-02T08:31:09;101711.28;;;7.33;56.61
69780;BME280;57052;55.602;38.096;2024-03-02T08:33:35;101698.66;;;7.27;57.06
69780;BME280;57052;55.602;38.096;2024-03-02T08:36:06;101714.78;;;7.40;55.89
69780;BME280;57052;55.602;38.096;2024-03-02T08:38:35;101711.88;;;7.41;56.77
69780;BME280;57052;55.602;38.096;2024-03-02T08:41:01;101709.38;;;7.46;56.55
69780;BME280;57052;55.602;38.096;2024-03-02T08:43:30;101711.19;;;7.52;56.20
69780;BME280;57052;55.602;38.096;2024-03-02T08:46:09;101711.19;;;7.59;56.64
69780;BME280;57052;55.602;38.096;2024-03-02T08:48:43;101703.13;;;7.59;56.10
69780;BME280;57052;55.602;38.096;2024-03-02T08:51:09;101709.50;;;7.64;55.51
69780;BME280;57052;55.602;38.096;2024-03-02T08:53:36;101696.00;;;7.64;56.07
69780;BME280;57052;55.602;38.096;2024-03-02T08:56:06;101705.53;;;7.73;55.52
69780;BME280;57052;55.602;38.096;2024-03-02T08:58:33;101712.75;;;7.80;55.68
69780;BME280;57052;55.602;38.096;2024-03-02T09:00:59;101702.41;;;7.70;55.21
69780;BME280;57052;55.602;38.096;2024-03-02T09:03:26;101714.22;;;7.75;54.93
69780;BME280;57052;55.602;38.096;2024-03-02T09:05:52;101710.09;;;7.73;55.60
69780;BME280;57052;55.602;38.096;2024-03-02T09:08:18;101719.84;;;7.74;55.17
69780;BME280;57052;55.602;38.096;2024-03-02T09:10:44;101716.91;;;7.75;54.99
69780;BME280;57052;55.602;38.096;2024-03-02T09:13:09;101719.59;;;7.75;55.55
69780;BME280;57052;55.602;38.096;2024-03-02T09:15:36;101712.75;;;7.80;54.89
69780;BME280;57052;55.602;38.096;2024-03-02T09:18:03;101712.09;;;7.84;54.07
69780;BME280;57052;55.602;38.096;2024-03-02T09:20:29;101709.78;;;7.88;54.39
69780;BME280;57052;55.602;38.096;2024-03-02T09:22:55;101707.94;;;7.88;54.36
69780;BME280;57052;55.602;38.096;2024-03-02T09:25:21;101716.97;;;8.00;55.02
69780;BME280;57052;55.602;38.096;2024-03-02T09:27:47;101696.50;;;7.93;54.33
69780;BME280;57052;55.602;38.096;2024-03-02T09:30:13;101696.84;;;8.03;53.91
69780;BME280;57052;55.602;38.096;2024-03-02T09:32:39;101678.63;;;7.98;53.61
69780;BME280;57052;55.602;38.096;2024-03-02T09:35:05;101694.06;;;8.16;53.88
69780;BME280;57052;55.602;38.096;2024-03-02T09:37:31;101711.81;;;8.36;53.96
69780;BME280;57052;55.602;38.096;2024-03-02T09:39:57;101700.97;;;8.43;53.71
69780;BME280;57052;55.602;38.096;2024-03-02T09:42:23;101700.44;;;8.28;52.74
69780;BME280;57052;55.602;38.096;2024-03-02T09:44:49;101695.06;;;8.28;53.32
69780;BME280;57052;55.602;38.096;2024-03-02T09:47:15;101692.22;;;8.16;52.88
69780;BME280;57052;55.602;38.096;2024-03-02T09:49:41;101693.66;;;8.12;53.57
69780;BME280;57052;55.602;38.096;2024-03-02T09:52:07;101685.66;;;7.99;52.63
69780;BME280;57052;55.602;38.096;2024-03-02T09:54:36;101694.56;;;8.06;53.27
69780;BME280;57052;55.602;38.096;2024-03-02T09:57:02;101675.72;;;8.00;53.27
69780;BME280;57052;55.602;38.096;2024-03-02T09:59:28;101663.75;;;7.89;53.29
69780;BME280;57052;55.602;38.096;2024-03-02T10:02:01;101674.84;;;8.06;52.35
69780;BME280;57052;55.602;38.096;2024-03-02T10:04:29;101690.94;;;8.19;53.49
69780;BME280;57052;55.602;38.096;2024-03-02T10:07:12;101692.34;;;8.28;51.69
69780;BME280;57052;55.602;38.096;2024-03-02T10:09:40;101684.78;;;8.43;53.44
69780;BME280;57052;55.602;38.096;2024-03-02T10:12:11;101683.44;;;8.52;52.32
69780;BME280;57052;55.602;38.096;2024-03-02T10:14:38;101680.91;;;8.57;52.48
69780;BME280;57052;55.602;38.096;2024-03-02T10:17:10;101682.66;;;8.70;52.75
69780;BME280;57052;55.602;38.096;2024-03-02T10:19:37;101682.63;;;8.76;52.67
69780;BME280;57052;55.602;38.096;2024-03-02T10:22:04;101676.75;;;8.79;52.50
69780;BME280;57052;55.602;38.096;2024-03-02T10:24:41;101679.00;;;8.82;50.87
69780;BME280;57052;55.602;38.096;2024-03-02T10:27:31;101641.81;;;8.66;51.50
69780;BME280;57052;55.602;38.096;2024-03-02T10:29:57;101670.25;;;8.87;51.65
69780;BME280;57052;55.602;38.096;2024-03-02T10:32:22;101681.00;;;8.93;51.86
69780;BME280;57052;55.602;38.096;2024-03-02T10:34:50;101683.69;;;8.93;51.52
69780;BME280;57052;55.602;38.096;2024-03-02T10:37:16;101684.72;;;8.92;51.11
69780;BME280;57052;55.602;38.096;2024-03-02T10:39:43;101682.25;;;8.91;51.86
69780;BME280;57052;55.602;38.096;2024-03-02T10:42:09;101673.78;;;8.87;51.52
69780;BME280;57052;55.602;38.096;2024-03-02T10:44:35;101688.94;;;8.88;51.47
69780;BME280;57052;55.602;38.096;2024-03-02T10:47:03;101673.25;;;8.79;51.36
69780;BME280;57052;55.602;38.096;2024-03-02T10:49:30;101684.22;;;8.84;51.66
69780;BME280;57052;55.602;38.096;2024-03-02T10:51:57;101684.41;;;8.82;51.72
69780;BME280;57052;55.602;38.096;2024-03-02T10:54:23;101679.00;;;8.82;51.58
69780;BME280;57052;55.602;38.096;2024-03-02T10:56:58;101681.13;;;8.80;50.91
69780;BME280;57052;55.602;38.096;2024-03-02T11:02:03;101662.47;;;8.54;50.31
69780;BME280;57052;55.602;38.096;2024-03-02T11:04:30;101684.59;;;8.63;51.25
69780;BME280;57052;55.602;38.096;2024-03-02T11:07:02;101686.97;;;8.53;51.08
69780;BME280;57052;55.602;38.096;2024-03-02T11:09:28;101684.34;;;8.46;51.18
69780;BME280;57052;55.602;38.096;2024-03-02T11:12:03;101693.53;;;8.38;50.12
69780;BME280;57052;55.602;38.096;2024-03-02T11:14:32;101691.88;;;8.37;50.75
69780;BME280;57052;55.602;38.096;2024-03-02T11:17:02;101676.56;;;8.25;51.34
69780;BME280;57052;55.602;38.096;2024-03-02T11:19:29;101678.81;;;8.34;51.18
69780;BME280;57052;55.602;38.096;2024-03-02T11:22:00;101685.44;;;8.38;51.68
69780;BME280;57052;55.602;38.096;2024-03-02T11:26:58;101696.16;;;8.45;51.75
69780;BME280;57052;55.602;38.096;2024-03-02T11:32:16;101697.09;;;8.57;50.23
69780;BME280;57052;55.602;38.096;2024-03-02T11:34:43;101685.34;;;8.52;50.12
69780;BME280;57052;55.602;38.096;2024-03-02T11:37:15;101696.66;;;8.60;50.60
69780;BME280;57052;55.602;38.096;2024-03-02T11:39:43;101699.97;;;8.62;50.47
69780;BME280;57052;55.602;38.096;2024-03-02T11:42:11;101692.53;;;8.58;50.23
69780;BME280;57052;55.602;38.096;2024-03-02T11:44:38;101694.34;;;8.64;50.53
69780;BME280;57052;55.602;38.096;2024-03-02T11:47:09;101691.66;;;8.64;50.14
69780;BME280;57052;55.602;38.096;2024-03-02T11:52:10;101691.50;;;8.59;50.00
69780;BME280;57052;55.602;38.096;2024-03-02T11:54:38;101682.34;;;8.60;50.63
69780;BME280;57052;55.602;38.096;2024-03-02T11:57:17;101700.44;;;8.59;48.96
69780;BME280;57052;55.602;38.096;2024-03-02T11:59:44;101692.09;;;8.61;50.15
69780;BME280;57052;55.602;38.096;2024-03-02T12:02:19;101698.75;;;8.58;48.85
69780;BME280;57052;55.602;38.096;2024-03-02T12:04:46;101693.59;;;8.57;50.28
69780;BME280;57052;55.602;38.096;2024-03-02T12:07:23;101700.88;;;8.56;48.52
69780;BME280;57052;55.602;38.096;2024-03-02T12:10:10;101702.97;;;8.54;48.69
69780;BME280;57052;55.602;38.096;2024-03-02T12:12:35;101698.75;;;8.58;50.22
69780;BME280;57052;55.602;38.096;2024-03-02T12:15:01;101700.56;;;8.64;50.38
69780;BME280;57052;55.602;38.096;2024-03-02T12:17:30;101702.81;;;8.67;50.85
69780;BME280;57052;55.602;38.096;2024-03-02T12:19:56;101707.38;;;8.67;50.57
69780;BME280;57052;55.602;38.096;2024-03-02T12:22:22;101708.47;;;8.66;50.27
69780;BME280;57052;55.602;38.096;2024-03-02T12:24:49;101694.19;;;8.59;49.47
69780;BME280;57052;55.602;38.096;2024-03-02T12:27:15;101708.28;;;8.61;50.22
69780;BME280;57052;55.602;38.096;2024-03-02T12:29:41;101698.16;;;8.56;50.31
69780;BME280;57052;55.602;38.096;2024-03-02T12:32:08;101713.94;;;8.59;50.25
69780;BME280;57052;55.602;38.096;2024-03-02T12:34:33;101698.59;;;8.53;50.71
69780;BME280;57052;55.602;38.096;2024-03-02T12:36:59;101705.25;;;8.51;50.49
69780;BME280;57052;55.602;38.096;2024-03-02T12:39:25;101707.97;;;8.51;50.74
69780;BME280;57052;55.602;38.096;2024-03-02T12:41:52;101709.22;;;8.48;50.63
69780;BME280;57052;55.602;38.096;2024-03-02T12:44:20;101719.63;;;8.45;50.22
69780;BME280;57052;55.602;38.096;2024-03-02T12:46:46;101713.03;;;8.41;49.98
69780;BME280;57052;55.602;38.096;2024-03-02T12:49:14;101726.34;;;8.35;50.14
69780;BME280;57052;55.602;38.096;2024-03-02T12:51:42;101711.84;;;8.30;50.98
69780;BME280;57052;55.602;38.096;2024-03-02T12:54:09;101711.25;;;8.28;50.79
69780;BME280;57052;55.602;38.096;2024-03-02T12:56:36;101688.28;;;8.12;50.38
69780;BME280;57052;55.602;38.096;2024-03-02T12:59:04;101712.28;;;8.20;51.38
69780;BME280;57052;55.602;38.096;2024-03-02T13:01:30;101714.00;;;8.15;50.86
69780;BME280;57052;55.602;38.096;2024-03-02T13:03:58;101709.03;;;8.12;50.90